createdAt,value
2022-11-23T00:05:29.910Z,6.73
2022-11-23T00:08:18.004Z,6.66
2022-11-23T00:11:06.032Z,6.69
2022-11-23T00:29:38.003Z,6.79
2022-11-23T00:35:08.547Z,6.75
2022-11-23T00:40:39.067Z,6.81
2022-11-23T00:43:26.943Z,6.75
2022-11-23T00:46:18.437Z,6.73
2022-11-23T00:51:55.612Z,6.73
2022-11-23T00:54:43.684Z,6.68
2022-11-23T00:57:32.856Z,6.78
2022-11-23T01:03:07.906Z,6.85
2022-11-23T01:05:56.171Z,6.83
2022-11-23T01:08:47.506Z,6.84
2022-11-23T01:14:18.147Z,6.79
2022-11-23T01:19:49.655Z,6.63
2022-11-23T01:25:26.080Z,6.37
2022-11-23T01:31:07.346Z,5.95
2022-11-23T01:36:57.886Z,6.02
2022-11-23T01:39:46.294Z,5.85
2022-11-23T01:45:40.094Z,5.93
2022-11-23T01:51:13.097Z,5.77
2022-11-23T01:56:46.994Z,5.75
2022-11-23T01:59:36.212Z,5.67
2022-11-23T02:02:24.400Z,5.62
2022-11-23T02:07:53.580Z,5.72
2022-11-23T02:10:42.068Z,5.69
2022-11-23T02:13:31.048Z,5.56
2022-11-23T02:16:20.829Z,5.54
2022-11-23T02:21:57.105Z,5.53
2022-11-23T02:27:33.394Z,5.55
2022-11-23T02:33:09.492Z,5.55
2022-11-23T02:38:46.783Z,5.53
2022-11-23T02:44:33.179Z,5.60
2022-11-23T02:47:22.436Z,5.51
2022-11-23T02:50:12.082Z,5.52
2022-11-23T02:55:42.440Z,5.68
2022-11-23T03:01:17.041Z,5.69
2022-11-23T03:06:54.999Z,5.51
2022-11-23T03:09:45.401Z,5.48
2022-11-23T03:18:20.429Z,5.56
2022-11-23T03:21:09.324Z,5.51
2022-11-23T03:26:39.276Z,5.71
2022-11-23T03:32:16.249Z,5.50
2022-11-23T03:37:52.027Z,5.38
2022-11-23T03:43:25.233Z,5.45
2022-11-23T03:48:55.366Z,5.43
2022-11-23T03:54:24.835Z,5.32
2022-11-23T03:59:59.119Z,5.14
2022-11-23T04:05:37.792Z,5.21
2022-11-23T04:08:26.118Z,5.05
2022-11-23T04:14:02.447Z,5.30
2022-11-23T04:19:36.992Z,5.22
2022-11-23T04:22:27.151Z,5.11
2022-11-23T04:25:15.531Z,5.03
2022-11-23T04:30:48.440Z,5.02
2022-11-23T04:36:18.082Z,4.97
2022-11-23T04:39:07.116Z,4.82
2022-11-23T04:41:55.500Z,4.85
2022-11-23T04:47:33.993Z,4.86
2022-11-23T04:50:23.886Z,4.78
2022-11-23T04:53:12.018Z,4.75
2022-11-23T04:56:03.946Z,4.74
2022-11-23T05:01:38.970Z,4.72
2022-11-23T05:07:13.382Z,4.63
2022-11-23T05:15:33.660Z,4.53
2022-11-23T05:21:06.891Z,4.52
2022-11-23T05:26:38.617Z,4.36
2022-11-23T05:29:29.385Z,4.37
2022-11-23T05:32:29.822Z,4.37
2022-11-23T05:35:18.277Z,4.36
2022-11-23T05:40:47.567Z,4.33
2022-11-23T05:43:38.223Z,4.19
2022-11-23T05:49:18.123Z,4.27
2022-11-23T05:57:40.723Z,4.20
2022-11-23T06:03:16.443Z,4.21
2022-11-23T06:11:32.442Z,4.25
2022-11-23T06:17:07.747Z,4.23
2022-11-23T06:22:35.796Z,4.21
2022-11-23T06:28:08.145Z,4.13
2022-11-23T06:33:34.073Z,4.13
2022-11-23T06:36:22.810Z,4.05
2022-11-23T06:39:11.335Z,4.06
2022-11-23T06:44:45.911Z,4.08
2022-11-23T06:50:16.939Z,4.08
2022-11-23T06:53:05.844Z,4.00
2022-11-23T06:55:57.323Z,4.01
2022-11-23T07:01:33.865Z,4.06
2022-11-23T07:04:22.315Z,4.05
2022-11-23T07:12:43.668Z,4.09
2022-11-23T07:18:21.685Z,4.06
2022-11-23T07:23:52.506Z,4.19
2022-11-23T07:32:45.462Z,4.14
2022-11-23T07:39:36.386Z,4.10
2022-11-23T07:45:59.549Z,4.59
2022-11-23T07:52:35.806Z,4.94
2022-11-23T07:59:12.116Z,5.16
2022-11-23T08:05:49.602Z,5.35
2022-11-23T08:11:48.300Z,5.63
2022-11-23T08:17:18.725Z,5.84
2022-11-23T08:20:08.728Z,5.70
2022-11-23T08:22:58.482Z,5.79
2022-11-23T08:28:28.203Z,5.99
2022-11-23T08:34:19.408Z,6.37
2022-11-23T08:39:58.480Z,6.38
2022-11-23T08:42:47.907Z,6.39
2022-11-23T08:45:36.234Z,6.52
2022-11-23T08:56:59.018Z,6.84
2022-11-23T09:00:00.850Z,6.92
2022-11-23T09:05:35.141Z,6.99
2022-11-23T09:13:52.038Z,7.38
2022-11-23T09:16:40.479Z,7.45
2022-11-23T09:19:29.371Z,7.44
2022-11-23T09:24:59.671Z,7.45
2022-11-23T09:27:48.306Z,7.57
2022-11-23T09:33:18.549Z,8.00
2022-11-23T09:38:57.222Z,8.10
2022-11-23T09:50:38.820Z,8.16
2022-11-23T09:56:16.786Z,8.41
2022-11-23T09:59:11.148Z,8.40
2022-11-23T10:04:49.428Z,8.46
2022-11-23T10:07:45.500Z,8.53
2022-11-23T10:13:35.362Z,8.75
2022-11-23T10:19:18.286Z,8.88
2022-11-23T10:24:55.941Z,8.93
2022-11-23T10:27:45.527Z,9.05
2022-11-23T10:33:25.206Z,9.16
2022-11-23T10:41:42.085Z,9.30
2022-11-23T10:47:37.886Z,9.41
2022-11-23T10:50:29.816Z,9.35
2022-11-23T10:56:13.389Z,9.47
2022-11-23T11:01:41.258Z,9.37
2022-11-23T11:04:29.943Z,9.51
2022-11-23T11:10:16.791Z,9.72
2022-11-23T11:13:07.335Z,9.68
2022-11-23T11:18:44.238Z,9.71
2022-11-23T11:21:38.756Z,9.77
2022-11-23T11:30:06.722Z,9.95
2022-11-23T11:38:32.475Z,9.51
2022-11-23T11:46:55.507Z,9.64
2022-11-23T11:52:36.614Z,9.73
2022-11-23T11:58:18.731Z,9.64
2022-11-23T12:01:09.999Z,9.62
2022-11-23T12:12:26.582Z,9.71
2022-11-23T12:18:39.016Z,9.95
2022-11-23T12:24:28.508Z,9.85
2022-11-23T12:30:22.979Z,9.70
2022-11-23T12:33:27.107Z,9.84
2022-11-23T12:36:31.360Z,9.92
2022-11-23T12:42:18.311Z,9.85
2022-11-23T12:50:46.891Z,10.02
2022-11-23T12:56:25.125Z,10.04
2022-11-23T13:02:05.118Z,9.59
2022-11-23T13:08:15.446Z,9.44
2022-11-23T13:14:04.885Z,9.28
2022-11-23T13:17:03.018Z,9.28
2022-11-23T13:22:54.954Z,9.56
2022-11-23T13:28:32.761Z,9.99
2022-11-23T13:31:24.656Z,10.11
2022-11-23T13:34:45.333Z,10.21
2022-11-23T13:43:07.709Z,10.37
2022-11-23T13:52:06.545Z,10.14
2022-11-23T13:55:20.555Z,10.07
2022-11-23T14:02:04.384Z,10.21
2022-11-23T14:07:36.056Z,10.26
2022-11-23T14:10:25.543Z,10.20
2022-11-23T14:16:50.859Z,10.08
2022-11-23T14:20:11.908Z,10.02
2022-11-23T14:23:23.929Z,10.05
2022-11-23T14:29:07.574Z,10.06
2022-11-23T14:35:17.773Z,10.05
2022-11-23T14:41:03.533Z,9.96
2022-11-23T14:46:35.934Z,9.66
2022-11-23T14:52:23.616Z,9.47
2022-11-23T15:00:43.369Z,9.39
2022-11-23T15:06:20.601Z,9.40
2022-11-23T15:12:10.810Z,9.24
2022-11-23T15:18:15.016Z,9.26
2022-11-23T15:21:05.920Z,9.17
2022-11-23T15:23:57.670Z,9.19
2022-11-23T15:29:38.050Z,9.12
2022-11-23T15:35:17.958Z,9.12
2022-11-23T15:41:03.257Z,9.03
2022-11-23T15:46:38.991Z,9.07
2022-11-23T15:52:18.723Z,9.12
2022-11-23T15:57:55.148Z,9.01
2022-11-23T16:03:37.023Z,8.97
2022-11-23T16:12:31.890Z,8.97
2022-11-23T16:21:21.102Z,8.63
2022-11-23T16:27:15.433Z,8.36
2022-11-23T16:32:48.835Z,8.30
2022-11-23T16:38:32.541Z,7.95
2022-11-23T16:44:18.066Z,7.72
2022-11-23T16:50:01.267Z,7.68
2022-11-23T16:55:30.893Z,7.51
2022-11-23T16:58:19.461Z,7.61
2022-11-23T17:03:47.389Z,7.10
2022-11-23T17:09:25.117Z,7.21
2022-11-23T17:15:15.537Z,7.37
2022-11-23T17:20:52.432Z,7.14
2022-11-23T17:26:34.833Z,6.94
2022-11-23T17:32:10.009Z,7.23
2022-11-23T17:37:58.791Z,7.04
2022-11-23T17:43:30.939Z,6.83
2022-11-23T17:46:21.168Z,6.73
2022-11-23T17:51:59.366Z,6.76
2022-11-23T18:00:37.564Z,6.61
2022-11-23T18:03:25.840Z,6.56
2022-11-23T18:06:15.933Z,6.59
2022-11-23T18:11:46.107Z,6.47
2022-11-23T18:14:34.514Z,6.50
2022-11-23T18:17:24.055Z,6.53
2022-11-23T18:22:59.587Z,6.47
2022-11-23T18:28:30.812Z,6.44
2022-11-23T18:31:23.473Z,6.39
2022-11-23T18:37:02.591Z,6.08
2022-11-23T18:45:24.722Z,6.15
2022-11-23T18:53:55.473Z,6.18
2022-11-23T18:59:57.472Z,6.42
2022-11-23T19:02:32.615Z,6.32
2022-11-23T19:05:21.405Z,6.34
2022-11-23T19:08:10.539Z,6.36
2022-11-23T19:11:08.204Z,6.52
2022-11-23T19:16:53.803Z,6.69
2022-11-23T19:22:28.187Z,6.85
2022-11-23T19:27:58.596Z,7.09
2022-11-23T19:33:37.600Z,7.02
2022-11-23T19:39:20.236Z,7.00
2022-11-23T19:45:08.265Z,7.08
2022-11-23T19:53:49.101Z,7.45
2022-11-23T20:02:36.364Z,7.10
2022-11-23T20:12:04.514Z,7.00
2022-11-23T20:17:35.613Z,7.10
2022-11-23T20:20:33.081Z,7.00
2022-11-23T20:23:41.007Z,7.07
2022-11-23T20:26:29.464Z,7.10
2022-11-23T20:32:10.456Z,7.21
2022-11-23T20:38:14.269Z,7.46
2022-11-23T20:41:26.670Z,7.48
2022-11-23T21:00:38.897Z,7.16
2022-11-23T21:09:13.305Z,7.45
2022-11-23T21:18:10.890Z,7.25
2022-11-23T21:24:50.340Z,7.36
2022-11-23T21:34:26.682Z,7.07
2022-11-23T21:42:47.757Z,6.71
2022-11-23T21:45:38.519Z,6.75
2022-11-23T21:48:27.146Z,6.84
2022-11-23T21:54:06.350Z,6.89
2022-11-23T21:59:39.767Z,7.24
2022-11-23T22:02:30.491Z,7.19
2022-11-23T22:05:18.813Z,7.28
2022-11-23T22:13:36.895Z,7.37
2022-11-23T22:24:36.141Z,7.10
2022-11-23T22:27:24.418Z,7.27
2022-11-23T22:32:57.943Z,7.28
2022-11-23T22:35:49.237Z,7.30
2022-11-23T22:41:21.274Z,7.40
2022-11-23T22:47:02.962Z,7.36
2022-11-23T22:55:21.424Z,7.49
2022-11-23T23:03:59.398Z,7.21
2022-11-23T23:06:50.971Z,7.22
2022-11-23T23:09:39.337Z,7.35
2022-11-23T23:15:14.737Z,7.31
2022-11-23T23:20:53.767Z,7.10
2022-11-23T23:23:45.123Z,7.14
2022-11-23T23:29:17.185Z,7.13
2022-11-23T23:34:49.614Z,7.02
2022-11-23T23:40:26.075Z,7.12
2022-11-23T23:43:14.315Z,7.03
2022-11-23T23:48:45.274Z,7.22
2022-11-23T23:51:35.036Z,7.11
2022-11-23T23:54:23.581Z,7.17
2022-11-23T23:59:53.636Z,7.38
